Time;durP1;ratioP1;P1;durP2;ratioP2;P2;SDS_P1;SDS_P2;PMS_P1;PMS_P2;Temp;Humidity;BMP_temperature;BMP_pressure;BME280_temperature;BME280_humidity;BME280_pressure;Samples;Min_cycle;Max_cycle;Signal;HPM_P1;HPM_P2
2023/07/29 00:02:01;;;;;;;16.33;8.90;;;17.90;99.90;;;;;;5029562;28;20041;-62
2023/07/29 00:04:26;;;;;;;15.63;9.73;;;17.90;99.90;;;;;;5029214;28;20704;-63
2023/07/29 00:06:52;;;;;;;14.15;9.05;;;17.90;99.90;;;;;;5037998;28;20093;-62
2023/07/29 00:09:17;;;;;;;13.25;9.20;;;17.80;99.90;;;;;;5031393;28;20082;-63
2023/07/29 00:11:43;;;;;;;13.07;9.50;;;17.90;99.90;;;;;;5064288;28;20106;-65
2023/07/29 00:14:09;;;;;;;14.10;8.32;;;17.90;99.90;;;;;;5067010;28;20044;-64
2023/07/29 00:16:34;;;;;;;14.80;9.60;;;17.90;99.90;;;;;;5047253;28;20105;-63
2023/07/29 00:19:00;;;;;;;15.75;10.15;;;17.90;99.90;;;;;;5047529;28;20048;-65
2023/07/29 00:21:25;;;;;;;16.23;9.82;;;17.90;99.90;;;;;;5044700;28;20047;-63
2023/07/29 00:23:51;;;;;;;13.82;9.93;;;17.90;99.90;;;;;;5028606;28;20128;-64
2023/07/29 00:26:17;;;;;;;14.80;10.15;;;17.90;99.90;;;;;;5027207;28;20068;-62
2023/07/29 00:28:43;;;;;;;13.00;9.73;;;17.90;99.90;;;;;;5045282;28;20455;-62
2023/07/29 00:31:08;;;;;;;15.38;10.07;;;17.90;99.90;;;;;;5049320;28;20079;-64
2023/07/29 00:33:34;;;;;;;15.10;10.10;;;17.90;99.90;;;;;;5038209;28;20049;-62
2023/07/29 00:36:02;;;;;;;17.00;10.30;;;17.90;99.90;;;;;;5012863;28;20597;-63
2023/07/29 00:38:28;;;;;;;17.38;10.85;;;18.00;99.90;;;;;;5048215;28;20724;-62
2023/07/29 00:40:56;;;;;;;14.55;10.23;;;18.00;99.90;;;;;;5029640;28;20193;-63
2023/07/29 00:43:22;;;;;;;16.98;10.75;;;18.00;99.90;;;;;;5048266;28;20423;-64
2023/07/29 00:45:48;;;;;;;17.75;11.38;;;18.00;99.90;;;;;;5065628;28;20078;-63
2023/07/29 00:48:14;;;;;;;14.65;10.63;;;18.00;99.90;;;;;;5048025;28;20038;-64
2023/07/29 00:50:40;;;;;;;16.10;11.13;;;18.00;99.90;;;;;;5047178;28;20121;-63
2023/07/29 00:53:06;;;;;;;14.98;10.25;;;18.00;99.90;;;;;;5047516;28;20041;-63
2023/07/29 00:55:31;;;;;;;19.70;11.73;;;18.00;99.90;;;;;;5047371;28;20044;-63
2023/07/29 00:57:57;;;;;;;16.17;11.70;;;18.00;99.90;;;;;;5047006;28;20498;-65
2023/07/29 01:00:24;;;;;;;18.55;11.55;;;18.00;99.90;;;;;;5047012;28;20090;-63
2023/07/29 01:02:50;;;;;;;16.65;10.82;;;17.90;99.90;;;;;;5047781;28;20213;-62
2023/07/29 01:05:17;;;;;;;14.95;10.43;;;17.90;99.90;;;;;;5044327;28;20119;-63
2023/07/29 01:07:49;;;;;;;16.73;10.80;;;17.90;99.90;;;;;;5060380;28;20033;-63
2023/07/29 01:10:36;;;;;;;15.30;10.20;;;17.90;99.90;;;;;;5046887;28;20036;-62
2023/07/29 01:13:13;;;;;;;16.73;11.27;;;17.90;99.90;;;;;;5047216;28;20424;-63
2023/07/29 01:15:49;;;;;;;15.73;10.65;;;17.90;99.90;;;;;;5064736;28;20080;-64
2023/07/29 01:18:22;;;;;;;17.10;11.45;;;17.90;99.90;;;;;;5045913;28;20045;-65
2023/07/29 01:20:48;;;;;;;15.73;10.25;;;17.90;99.90;;;;;;5026831;28;20117;-65
2023/07/29 01:23:16;;;;;;;15.35;11.27;;;17.80;99.90;;;;;;5046185;28;20041;-64
2023/07/29 01:25:41;;;;;;;18.52;11.30;;;17.80;99.90;;;;;;5025609;28;20072;-63
2023/07/29 01:28:08;;;;;;;21.13;11.50;;;17.80;99.90;;;;;;5028160;28;20093;-63
2023/07/29 01:30:40;;;;;;;15.18;9.98;;;17.80;99.90;;;;;;5036289;28;20129;-62
2023/07/29 01:33:18;;;;;;;17.40;10.93;;;17.80;99.90;;;;;;5063760;28;20072;-65
2023/07/29 01:35:50;;;;;;;16.73;10.80;;;17.80;99.90;;;;;;5046536;28;20076;-65
2023/07/29 01:38:36;;;;;;;17.40;11.30;;;17.70;99.90;;;;;;5064316;28;20048;-65
2023/07/29 01:41:02;;;;;;;16.33;10.45;;;17.70;99.90;;;;;;5045354;28;20435;-65
2023/07/29 01:43:29;;;;;;;14.65;10.40;;;17.70;99.90;;;;;;5047032;28;20036;-64
2023/07/29 01:45:55;;;;;;;18.23;10.45;;;17.70;99.90;;;;;;5044335;28;20416;-62
2023/07/29 01:48:21;;;;;;;16.55;10.95;;;17.60;99.90;;;;;;5027061;28;20132;-64
2023/07/29 01:50:47;;;;;;;17.70;10.73;;;17.60;99.90;;;;;;5026497;28;20106;-64
2023/07/29 01:53:12;;;;;;;15.02;10.05;;;17.60;99.90;;;;;;5027703;28;20454;-63
2023/07/29 01:55:39;;;;;;;14.23;10.07;;;17.60;99.90;;;;;;5043400;28;20559;-63
2023/07/29 01:58:04;;;;;;;15.88;10.32;;;17.50;99.90;;;;;;5043017;28;20043;-63
2023/07/29 02:00:30;;;;;;;18.10;10.98;;;17.50;99.90;;;;;;5046164;28;20411;-64
2023/07/29 02:02:55;;;;;;;16.17;10.63;;;17.50;99.90;;;;;;5045684;28;20054;-63
2023/07/29 02:05:21;;;;;;;17.40;10.65;;;17.50;99.90;;;;;;5046747;28;20036;-64
2023/07/29 02:07:47;;;;;;;17.92;10.63;;;17.40;99.90;;;;;;5026338;28;20040;-63
2023/07/29 02:10:13;;;;;;;16.65;10.93;;;17.40;99.90;;;;;;5026215;28;20086;-67
2023/07/29 02:12:38;;;;;;;18.00;11.50;;;17.40;99.90;;;;;;5043957;28;20040;-64
2023/07/29 02:15:04;;;;;;;18.77;11.00;;;17.30;99.90;;;;;;5044646;28;20564;-64
2023/07/29 02:17:31;;;;;;;17.17;10.77;;;17.30;99.90;;;;;;5027496;28;20538;-63
2023/07/29 02:19:56;;;;;;;16.00;10.30;;;17.30;99.90;;;;;;5044090;28;20044;-62
2023/07/29 02:22:22;;;;;;;16.20;9.98;;;17.30;99.90;;;;;;5057326;28;20530;-64
2023/07/29 02:24:47;;;;;;;14.43;9.75;;;17.30;99.90;;;;;;5064040;28;20111;-65
2023/07/29 02:27:13;;;;;;;19.95;10.23;;;17.30;99.90;;;;;;5063713;28;20036;-64
2023/07/29 02:29:39;;;;;;;19.05;9.77;;;17.30;99.90;;;;;;5058566;28;20527;-63
2023/07/29 02:32:04;;;;;;;13.55;9.48;;;17.20;99.90;;;;;;5037891;28;20033;-63
2023/07/29 02:34:30;;;;;;;14.40;9.52;;;17.20;99.90;;;;;;5064466;28;20127;-64
2023/07/29 02:36:56;;;;;;;15.77;9.70;;;17.20;99.90;;;;;;5064070;28;20079;-64
2023/07/29 02:39:23;;;;;;;15.15;9.98;;;17.20;99.90;;;;;;5063746;28;20037;-65
2023/07/29 02:41:48;;;;;;;14.32;9.70;;;17.20;99.90;;;;;;5046429;28;20045;-63
2023/07/29 02:44:14;;;;;;;18.10;9.82;;;17.20;99.90;;;;;;5050478;28;20177;-64
2023/07/29 02:46:40;;;;;;;14.73;9.07;;;17.20;99.90;;;;;;5049799;28;20052;-64
2023/07/29 02:49:06;;;;;;;14.15;8.95;;;17.20;99.90;;;;;;5067735;28;20040;-66
2023/07/29 02:51:31;;;;;;;16.05;9.30;;;17.20;99.90;;;;;;5044626;28;20752;-64
2023/07/29 02:53:57;;;;;;;14.95;8.85;;;17.10;99.90;;;;;;5030460;28;20125;-64
2023/07/29 02:56:22;;;;;;;15.15;9.30;;;17.20;99.90;;;;;;5048485;28;20049;-64
2023/07/29 02:58:48;;;;;;;14.82;9.25;;;17.20;99.90;;;;;;5068173;28;20059;-64
2023/07/29 03:01:13;;;;;;;16.92;8.50;;;17.20;99.90;;;;;;5049681;28;20048;-63
2023/07/29 03:03:39;;;;;;;13.20;8.98;;;17.20;99.90;;;;;;5067102;28;20071;-64
2023/07/29 03:06:08;;;;;;;14.02;8.80;;;17.20;99.90;;;;;;5049441;28;20072;-63
2023/07/29 03:08:34;;;;;;;15.30;8.25;;;17.20;99.90;;;;;;5049446;28;20039;-66
2023/07/29 03:11:07;;;;;;;16.02;8.45;;;17.10;99.90;;;;;;5048524;28;20052;-64
2023/07/29 03:13:33;;;;;;;14.90;8.10;;;17.20;99.90;;;;;;5033168;28;20093;-65
2023/07/29 03:16:13;;;;;;;12.05;7.65;;;17.10;99.90;;;;;;5049323;28;20480;-65
2023/07/29 03:18:39;;;;;;;13.55;7.80;;;17.20;99.90;;;;;;5049560;28;20044;-65
2023/07/29 03:21:05;;;;;;;14.00;7.70;;;17.20;99.90;;;;;;5047767;28;20150;-64
2023/07/29 03:23:32;;;;;;;17.30;7.93;;;17.10;99.90;;;;;;5047840;28;20037;-64
2023/07/29 03:25:59;;;;;;;11.85;7.53;;;17.20;99.90;;;;;;5028490;28;20484;-65
2023/07/29 03:28:28;;;;;;;12.90;7.05;;;17.10;99.90;;;;;;5032628;28;20043;-64
2023/07/29 03:30:57;;;;;;;16.70;7.13;;;17.10;99.90;;;;;;5031937;28;20051;-65
2023/07/29 03:33:25;;;;;;;11.15;6.20;;;17.10;99.90;;;;;;5067826;28;20062;-65
2023/07/29 03:35:50;;;;;;;11.45;6.70;;;17.10;99.90;;;;;;5049042;28;20048;-65
2023/07/29 03:38:16;;;;;;;11.25;6.65;;;17.10;99.90;;;;;;5029458;28;20048;-65
2023/07/29 03:40:42;;;;;;;11.90;7.28;;;17.10;99.90;;;;;;5027586;28;20125;-65
2023/07/29 03:43:08;;;;;;;12.32;6.50;;;17.10;99.90;;;;;;5063135;28;20041;-64
2023/07/29 03:45:38;;;;;;;12.10;6.32;;;17.10;99.90;;;;;;5049275;28;20605;-64
2023/07/29 03:48:04;;;;;;;10.73;6.03;;;17.10;99.90;;;;;;5048995;28;20040;-64
2023/07/29 03:50:30;;;;;;;11.73;6.03;;;17.10;99.90;;;;;;5048384;28;20054;-64
2023/07/29 03:52:56;;;;;;;12.88;6.07;;;17.10;99.90;;;;;;5065804;28;20040;-63
2023/07/29 03:55:22;;;;;;;10.50;6.25;;;17.00;99.90;;;;;;5031839;28;20733;-64
2023/07/29 03:57:48;;;;;;;13.82;6.03;;;17.00;99.90;;;;;;5031971;28;20036;-63
2023/07/29 04:00:14;;;;;;;10.00;5.50;;;17.00;99.90;;;;;;5032023;28;20123;-64
2023/07/29 04:02:40;;;;;;;11.50;5.93;;;17.00;99.90;;;;;;5033459;28;20789;-64
2023/07/29 04:05:08;;;;;;;14.93;6.20;;;17.00;99.90;;;;;;5045663;28;20037;-65
2023/07/29 04:07:34;;;;;;;10.10;5.40;;;17.00;99.90;;;;;;5060899;28;20048;-63
2023/07/29 04:10:01;;;;;;;9.05;5.25;;;17.00;99.90;;;;;;5065983;28;20075;-63
2023/07/29 04:12:27;;;;;;;15.35;5.50;;;17.00;99.90;;;;;;5066150;28;20119;-63
2023/07/29 04:14:53;;;;;;;10.57;4.90;;;16.90;99.90;;;;;;5052546;28;20192;-63
2023/07/29 04:17:18;;;;;;;12.15;5.22;;;16.90;99.90;;;;;;5045685;28;20439;-65
2023/07/29 04:19:44;;;;;;;8.93;5.30;;;16.90;99.90;;;;;;5046474;28;20171;-64
2023/07/29 04:22:10;;;;;;;12.30;5.47;;;16.90;99.90;;;;;;5039014;28;20627;-64
2023/07/29 04:24:36;;;;;;;10.77;5.10;;;16.90;99.90;;;;;;5066792;28;20051;-64
2023/07/29 04:27:01;;;;;;;12.43;5.15;;;16.90;99.90;;;;;;5047471;28;20099;-65
2023/07/29 04:29:27;;;;;;;10.50;4.93;;;16.90;99.90;;;;;;5065419;28;20033;-64
2023/07/29 04:31:53;;;;;;;11.98;6.03;;;17.00;99.90;;;;;;5031535;28;20040;-63
2023/07/29 04:34:19;;;;;;;10.95;6.20;;;17.00;99.90;;;;;;5066621;28;20044;-63
2023/07/29 04:36:46;;;;;;;12.23;6.13;;;17.00;99.90;;;;;;5048120;28;20059;-63
2023/07/29 04:39:11;;;;;;;11.82;6.00;;;17.00;99.90;;;;;;5066953;28;20502;-64
2023/07/29 04:41:37;;;;;;;14.75;6.15;;;17.00;99.90;;;;;;5046736;28;20053;-64
2023/07/29 04:44:03;;;;;;;13.73;6.20;;;17.00;99.90;;;;;;5030996;28;20044;-64
2023/07/29 04:46:29;;;;;;;10.98;6.97;;;17.00;99.90;;;;;;5060337;28;20052;-63
2023/07/29 04:48:54;;;;;;;12.75;6.78;;;17.10;99.90;;;;;;5028204;28;20404;-61
2023/07/29 04:51:20;;;;;;;12.55;6.55;;;17.20;99.90;;;;;;5030737;28;20044;-64
2023/07/29 04:53:46;;;;;;;12.13;6.65;;;17.30;99.90;;;;;;5047840;28;20511;-62
2023/07/29 04:56:11;;;;;;;12.57;6.65;;;17.40;99.90;;;;;;5064588;28;20047;-64
2023/07/29 04:58:37;;;;;;;11.20;6.32;;;17.40;99.90;;;;;;5031024;28;20086;-64
2023/07/29 05:01:04;;;;;;;13.82;5.72;;;17.50;99.90;;;;;;5029990;28;20083;-65
2023/07/29 05:03:30;;;;;;;9.45;5.57;;;17.60;99.90;;;;;;5065150;28;20048;-63
2023/07/29 05:05:57;;;;;;;10.40;5.55;;;17.70;99.90;;;;;;5046973;28;20040;-65
2023/07/29 05:08:22;;;;;;;11.38;5.30;;;17.80;99.90;;;;;;5031068;28;20546;-64
2023/07/29 05:10:52;;;;;;;9.98;4.40;;;17.90;99.90;;;;;;5046555;28;20040;-63
2023/07/29 05:13:19;;;;;;;9.77;4.82;;;17.90;99.90;;;;;;5048054;28;20123;-63
2023/07/29 05:15:45;;;;;;;10.02;4.78;;;17.80;99.90;;;;;;5046764;28;20071;-63
2023/07/29 05:18:11;;;;;;;9.95;5.25;;;17.80;99.90;;;;;;5046446;28;20049;-63
2023/07/29 05:20:36;;;;;;;10.70;5.38;;;17.70;99.90;;;;;;5044825;28;20112;-64
2023/07/29 05:23:02;;;;;;;11.15;4.78;;;17.70;99.90;;;;;;5044897;28;20135;-65
2023/07/29 05:25:28;;;;;;;11.77;5.30;;;17.60;99.90;;;;;;5046394;28;20044;-64
2023/07/29 05:27:54;;;;;;;10.25;5.50;;;17.50;99.90;;;;;;5046728;28;20062;-65
2023/07/29 05:30:20;;;;;;;10.60;5.32;;;17.50;99.90;;;;;;5030001;28;20543;-64
2023/07/29 05:32:46;;;;;;;10.57;5.22;;;17.50;99.90;;;;;;5065211;28;20089;-64
2023/07/29 05:35:11;;;;;;;8.88;5.30;;;17.50;99.90;;;;;;5046919;28;20076;-63
2023/07/29 05:37:40;;;;;;;9.93;5.22;;;17.40;99.90;;;;;;5046784;28;20040;-63
2023/07/29 05:40:06;;;;;;;9.55;5.22;;;17.40;99.90;;;;;;5045864;28;20040;-64
2023/07/29 05:42:32;;;;;;;9.93;4.50;;;17.40;99.90;;;;;;5063512;28;20422;-63
2023/07/29 05:44:58;;;;;;;9.43;4.63;;;17.40;99.90;;;;;;5046772;28;20082;-63
2023/07/29 05:47:24;;;;;;;12.57;4.65;;;17.40;99.90;;;;;;5046449;28;20047;-64
2023/07/29 05:49:49;;;;;;;9.40;4.90;;;17.30;99.90;;;;;;5046574;28;20078;-64
2023/07/29 05:52:15;;;;;;;12.18;4.63;;;17.30;99.90;;;;;;5046502;28;20037;-63
2023/07/29 05:54:42;;;;;;;7.97;4.13;;;17.30;99.90;;;;;;5064603;28;20036;-63
2023/07/29 05:57:09;;;;;;;8.93;4.25;;;17.30;99.90;;;;;;5036352;28;20041;-64
2023/07/29 05:59:35;;;;;;;7.93;4.20;;;17.20;99.90;;;;;;5044636;28;20072;-64
2023/07/29 06:02:01;;;;;;;10.85;3.95;;;17.20;99.90;;;;;;5019818;28;20095;-63
2023/07/29 06:04:29;;;;;;;9.70;4.43;;;17.20;99.90;;;;;;5030066;28;20032;-65
2023/07/29 06:06:55;;;;;;;10.95;4.20;;;17.20;99.90;;;;;;5046109;28;20068;-65
2023/07/29 06:09:22;;;;;;;8.15;3.90;;;17.20;99.90;;;;;;5029659;28;20251;-66
2023/07/29 06:11:48;;;;;;;9.30;4.22;;;17.20;99.90;;;;;;5028644;28;20395;-64
2023/07/29 06:14:14;;;;;;;10.00;3.83;;;17.20;99.90;;;;;;5029778;28;20057;-66
2023/07/29 06:16:39;;;;;;;6.93;3.65;;;17.20;99.90;;;;;;5045363;28;20052;-65
2023/07/29 06:19:05;;;;;;;9.38;3.88;;;17.20;99.90;;;;;;5030100;28;20544;-64
2023/07/29 06:21:31;;;;;;;9.05;3.70;;;17.20;99.90;;;;;;5045963;28;20145;-63
2023/07/29 06:23:56;;;;;;;8.50;3.63;;;17.20;99.90;;;;;;5046327;28;20087;-64
2023/07/29 06:26:22;;;;;;;9.60;3.63;;;17.20;99.90;;;;;;5062580;28;20044;-64
2023/07/29 06:28:48;;;;;;;8.80;3.90;;;17.30;99.90;;;;;;5029545;28;20075;-62
2023/07/29 06:31:13;;;;;;;10.40;3.83;;;17.30;99.90;;;;;;5061452;28;20028;-67
2023/07/29 06:33:39;;;;;;;8.25;3.95;;;17.30;99.90;;;;;;5029280;28;20077;-65
2023/07/29 06:36:04;;;;;;;11.82;4.20;;;17.30;99.90;;;;;;5046611;28;20128;-64
2023/07/29 06:38:30;;;;;;;7.97;3.47;;;17.40;99.90;;;;;;5063869;28;20243;-62
2023/07/29 06:40:56;;;;;;;12.30;3.70;;;17.40;99.90;;;;;;5045330;28;20053;-64
2023/07/29 06:43:22;;;;;;;9.77;3.58;;;17.50;99.90;;;;;;5064260;28;20521;-63
2023/07/29 06:45:51;;;;;;;9.70;3.70;;;17.60;99.90;;;;;;5046538;28;20040;-66
2023/07/29 06:48:17;;;;;;;9.60;3.25;;;17.80;99.90;;;;;;5045739;28;20044;-62
2023/07/29 06:50:42;;;;;;;9.50;3.47;;;18.10;99.90;;;;;;5045243;28;20035;-64
2023/07/29 06:53:08;;;;;;;9.25;3.55;;;18.20;99.90;;;;;;5044980;28;20032;-65
2023/07/29 06:55:34;;;;;;;7.90;3.45;;;18.30;99.90;;;;;;5062287;28;20040;-67
2023/07/29 06:58:00;;;;;;;13.00;4.10;;;18.30;99.90;;;;;;5062744;28;20048;-65
2023/07/29 07:00:25;;;;;;;11.05;3.58;;;18.30;99.90;;;;;;5043044;28;20033;-65
2023/07/29 07:02:51;;;;;;;8.13;3.47;;;18.40;99.90;;;;;;5043447;28;20053;-64
2023/07/29 07:05:17;;;;;;;9.23;3.83;;;18.40;99.90;;;;;;5063542;28;20053;-66
2023/07/29 07:07:42;;;;;;;9.57;3.78;;;18.40;99.90;;;;;;5043946;28;20400;-65
2023/07/29 07:10:08;;;;;;;13.27;4.15;;;18.40;99.90;;;;;;5062697;28;20506;-63
2023/07/29 07:12:34;;;;;;;11.23;4.13;;;18.50;99.90;;;;;;5027965;28;20059;-63
2023/07/29 07:15:01;;;;;;;11.57;4.57;;;18.50;99.90;;;;;;5032718;28;20134;-62
2023/07/29 07:17:26;;;;;;;9.45;4.30;;;18.50;99.90;;;;;;5044895;28;20053;-65
2023/07/29 07:19:52;;;;;;;10.15;4.82;;;18.60;99.90;;;;;;5028446;28;20122;-70
2023/07/29 07:22:18;;;;;;;12.20;4.95;;;18.60;99.90;;;;;;5063211;28;20567;-66
2023/07/29 07:24:44;;;;;;;11.95;5.28;;;18.60;99.90;;;;;;5063913;28;20144;-66
2023/07/29 07:27:10;;;;;;;9.52;4.40;;;18.60;99.90;;;;;;5062429;28;20710;-66
2023/07/29 07:29:35;;;;;;;10.38;4.93;;;18.60;99.90;;;;;;5048865;28;20044;-69
2023/07/29 07:32:02;;;;;;;11.05;5.47;;;18.60;99.90;;;;;;5058589;28;20037;-66
2023/07/29 07:34:27;;;;;;;10.80;4.93;;;18.50;99.90;;;;;;5029653;28;20037;-65
2023/07/29 07:36:53;;;;;;;12.00;5.55;;;18.50;99.90;;;;;;5046400;28;20127;-68
2023/07/29 07:39:19;;;;;;;14.13;5.60;;;18.50;99.90;;;;;;5066688;28;20042;-66
2023/07/29 07:41:48;;;;;;;12.82;5.57;;;18.50;99.90;;;;;;5048656;28;20044;-67
2023/07/29 07:44:15;;;;;;;10.85;4.78;;;18.50;99.90;;;;;;5067396;28;20148;-65
2023/07/29 07:46:41;;;;;;;13.60;5.78;;;18.50;99.90;;;;;;5016150;28;20040;-70
2023/07/29 07:49:07;;;;;;;11.85;5.28;;;18.50;99.90;;;;;;5054297;28;20064;-67
2023/07/29 07:51:32;;;;;;;11.57;6.00;;;18.60;99.90;;;;;;5066074;28;20083;-66
2023/07/29 07:53:58;;;;;;;17.63;5.93;;;18.70;99.90;;;;;;5048776;28;20048;-66
2023/07/29 07:56:24;;;;;;;14.52;6.25;;;18.80;99.90;;;;;;5031325;28;20051;-69
2023/07/29 07:58:49;;;;;;;10.07;5.38;;;19.00;99.90;;;;;;5048791;28;20415;-67
2023/07/29 08:01:15;;;;;;;10.20;5.70;;;19.10;99.90;;;;;;5031434;28;20496;-65
2023/07/29 08:03:40;;;;;;;13.63;6.03;;;19.20;99.90;;;;;;5062718;28;20136;-65
2023/07/29 08:06:06;;;;;;;16.20;5.80;;;19.20;99.90;;;;;;5065301;28;20105;-66
2023/07/29 08:08:32;;;;;;;13.20;5.47;;;19.20;99.90;;;;;;5044577;28;20057;-66
2023/07/29 08:10:57;;;;;;;16.10;4.93;;;19.20;99.90;;;;;;5030749;28;20067;-65
2023/07/29 08:13:24;;;;;;;11.50;5.20;;;19.20;99.90;;;;;;5046445;28;20040;-65
2023/07/29 08:15:52;;;;;;;11.15;5.15;;;19.20;99.90;;;;;;5041108;28;20440;-64
2023/07/29 08:18:18;;;;;;;10.85;4.93;;;19.20;99.90;;;;;;5047915;28;20090;-64
2023/07/29 08:20:57;;;;;;;10.27;4.88;;;19.20;99.90;;;;;;5048239;28;20489;-67
2023/07/29 08:23:24;;;;;;;16.60;5.13;;;19.30;99.90;;;;;;5047409;28;20044;-70
2023/07/29 08:25:56;;;;;;;11.57;4.97;;;19.40;99.90;;;;;;5045687;28;20500;-68
2023/07/29 08:28:22;;;;;;;10.48;4.85;;;19.50;99.90;;;;;;5047821;28;20047;-67
2023/07/29 08:30:48;;;;;;;10.88;4.43;;;19.50;99.90;;;;;;5045792;28;20040;-67
2023/07/29 08:33:14;;;;;;;9.93;4.80;;;19.60;99.90;;;;;;5065517;28;20413;-72
2023/07/29 08:35:40;;;;;;;10.77;4.35;;;19.70;99.90;;;;;;5065795;28;20592;-67
2023/07/29 08:38:06;;;;;;;11.77;3.97;;;19.80;99.90;;;;;;5027898;28;20049;-69
2023/07/29 08:40:34;;;;;;;9.25;3.92;;;19.80;99.90;;;;;;5026995;28;20045;-67
2023/07/29 08:43:05;;;;;;;9.85;4.03;;;19.80;99.90;;;;;;5063349;28;20032;-64
2023/07/29 08:45:35;;;;;;;10.68;3.78;;;19.90;99.90;;;;;;5066280;28;20036;-66
2023/07/29 08:48:06;;;;;;;14.50;3.88;;;20.00;99.90;;;;;;5065805;28;20063;-69
2023/07/29 08:50:33;;;;;;;7.78;3.72;;;20.00;99.90;;;;;;5048235;28;20554;-66
2023/07/29 08:53:00;;;;;;;8.65;3.55;;;20.00;99.90;;;;;;5065865;28;20411;-67
2023/07/29 08:55:26;;;;;;;9.77;3.80;;;20.00;99.90;;;;;;5047436;28;20514;-67
2023/07/29 08:57:52;;;;;;;7.95;3.60;;;20.10;99.90;;;;;;5047298;28;20048;-68
2023/07/29 09:00:19;;;;;;;9.63;4.07;;;20.10;99.90;;;;;;5047022;28;20051;-67
2023/07/29 09:02:45;;;;;;;8.68;4.68;;;20.20;99.90;;;;;;5047683;28;20470;-66
2023/07/29 09:05:10;;;;;;;9.30;3.35;;;20.10;99.90;;;;;;5063762;28;20116;-65
2023/07/29 09:07:38;;;;;;;10.32;3.40;;;20.10;99.90;;;;;;5040826;28;20079;-67
2023/07/29 09:10:04;;;;;;;10.95;3.47;;;20.00;99.90;;;;;;5030291;28;20040;-67
2023/07/29 09:12:29;;;;;;;8.73;3.58;;;20.00;99.90;;;;;;5047156;28;20123;-66
2023/07/29 09:14:55;;;;;;;11.10;3.80;;;20.20;99.90;;;;;;5030883;28;20127;-68
2023/07/29 09:17:23;;;;;;;8.25;3.38;;;20.30;99.90;;;;;;5047565;28;20036;-71
2023/07/29 09:19:50;;;;;;;12.02;3.42;;;20.40;99.90;;;;;;5047627;28;20835;-65
2023/07/29 09:22:20;;;;;;;10.57;3.10;;;20.30;99.90;;;;;;5046523;28;20040;-68
2023/07/29 09:24:47;;;;;;;9.48;3.65;;;20.30;99.90;;;;;;5030032;28;20040;-68
2023/07/29 09:27:24;;;;;;;9.50;3.50;;;20.20;99.90;;;;;;5029505;28;20028;-66
2023/07/29 09:29:50;;;;;;;10.30;3.47;;;20.20;99.90;;;;;;5046750;28;20047;-70
2023/07/29 09:32:23;;;;;;;10.20;3.67;;;20.10;99.90;;;;;;5046810;28;20041;-66
2023/07/29 09:34:49;;;;;;;8.27;3.38;;;20.30;99.90;;;;;;5047187;28;20052;-66
2023/07/29 09:37:21;;;;;;;9.82;3.67;;;20.80;99.90;;;;;;5046646;28;20089;-66
2023/07/29 09:39:49;;;;;;;7.55;2.78;;;21.20;99.90;;;;;;5046139;28;20047;-68
2023/07/29 09:42:20;;;;;;;8.98;2.95;;;21.40;99.90;;;;;;5045321;28;20048;-64
2023/07/29 09:44:45;;;;;;;10.77;2.83;;;21.50;99.90;;;;;;5027500;28;20592;-65
2023/07/29 09:47:20;;;;;;;7.65;2.78;;;21.40;99.90;;;;;;5037572;28;20041;-67
2023/07/29 09:49:46;;;;;;;9.18;2.90;;;21.30;99.90;;;;;;5030054;28;20032;-68
2023/07/29 09:52:11;;;;;;;8.35;2.90;;;21.30;99.90;;;;;;5046412;28;20052;-68
2023/07/29 09:54:37;;;;;;;7.50;2.50;;;21.30;99.90;;;;;;5030447;28;20052;-66
2023/07/29 09:57:03;;;;;;;5.88;2.15;;;21.30;99.90;;;;;;5045539;28;20040;-69
2023/07/29 09:59:34;;;;;;;9.98;2.30;;;21.30;99.90;;;;;;5029431;28;20044;-65
2023/07/29 10:02:00;;;;;;;7.05;2.10;;;21.30;99.90;;;;;;5029676;28;20864;-68
2023/07/29 10:04:26;;;;;;;6.28;2.30;;;21.40;99.90;;;;;;5047124;28;20040;-69
2023/07/29 10:06:53;;;;;;;7.20;2.30;;;21.60;99.90;;;;;;5030377;28;20041;-70
2023/07/29 10:09:20;;;;;;;6.00;1.90;;;21.60;99.90;;;;;;5026664;28;20041;-74
2023/07/29 10:11:47;;;;;;;8.15;2.30;;;21.50;99.90;;;;;;5043605;28;20514;-74
2023/07/29 10:14:13;;;;;;;6.65;1.90;;;21.40;99.90;;;;;;5027473;28;20061;-66
2023/07/29 10:16:45;;;;;;;6.75;2.10;;;21.30;99.90;;;;;;5034891;28;20040;-65
2023/07/29 10:19:12;;;;;;;7.38;2.20;;;21.30;99.90;;;;;;5064344;28;20578;-66
2023/07/29 10:21:40;;;;;;;6.40;2.35;;;21.30;99.90;;;;;;5046103;28;20045;-66
2023/07/29 10:24:14;;;;;;;6.80;2.17;;;21.30;99.90;;;;;;5029780;28;20072;-67
2023/07/29 10:26:42;;;;;;;6.13;2.40;;;21.30;99.90;;;;;;5029787;28;20048;-69
2023/07/29 10:29:12;;;;;;;6.50;2.20;;;21.40;99.90;;;;;;5028140;28;20032;-69
2023/07/29 10:31:40;;;;;;;7.50;2.45;;;21.30;99.90;;;;;;5010769;28;20158;-69
2023/07/29 10:34:06;;;;;;;6.65;2.55;;;21.30;99.90;;;;;;5026735;28;20391;-66
2023/07/29 10:36:32;;;;;;;8.43;2.78;;;21.20;99.90;;;;;;5030530;28;20436;-66
2023/07/29 10:38:58;;;;;;;7.97;2.50;;;21.20;99.90;;;;;;5046115;28;20132;-66
2023/07/29 10:41:23;;;;;;;7.93;2.80;;;21.10;99.90;;;;;;5042866;28;20029;-71
2023/07/29 10:43:49;;;;;;;7.63;2.50;;;21.20;99.90;;;;;;5046129;28;20041;-67
2023/07/29 10:46:19;;;;;;;12.40;2.80;;;21.40;99.90;;;;;;5063791;28;20460;-68
2023/07/29 10:48:51;;;;;;;9.00;2.97;;;21.60;99.90;;;;;;5064347;28;20029;-68
2023/07/29 10:51:29;;;;;;;6.60;3.20;;;21.80;99.90;;;;;;5062967;28;20644;-70
2023/07/29 10:54:10;;;;;;;7.85;2.28;;;21.90;99.90;;;;;;5046149;28;20048;-66
2023/07/29 10:56:42;;;;;;;6.57;2.50;;;22.00;99.90;;;;;;5044182;28;20055;-66
2023/07/29 10:59:07;;;;;;;7.20;2.10;;;22.00;99.90;;;;;;5046137;28;20416;-68
2023/07/29 11:01:33;;;;;;;7.80;2.25;;;22.00;99.90;;;;;;5042281;28;20068;-68
2023/07/29 11:04:23;;;;;;;5.65;2.20;;;22.00;99.90;;;;;;5046023;28;20044;-69
2023/07/29 11:07:04;;;;;;;8.65;2.35;;;21.90;99.90;;;;;;5029748;28;20087;-67
2023/07/29 11:09:49;;;;;;;7.72;2.45;;;21.80;99.90;;;;;;5045997;28;20045;-65
2023/07/29 11:12:33;;;;;;;7.55;1.88;;;21.70;99.90;;;;;;5029045;28;20045;-68
2023/07/29 11:15:03;;;;;;;5.78;1.75;;;21.60;99.90;;;;;;5046541;28;20094;-65
2023/07/29 11:17:32;;;;;;;5.25;1.60;;;21.60;99.90;;;;;;5042736;28;20048;-69
2023/07/29 11:20:01;;;;;;;7.03;1.65;;;21.50;99.90;;;;;;5026295;28;20469;-66
2023/07/29 11:22:26;;;;;;;7.05;1.40;;;21.30;99.90;;;;;;5027113;28;20053;-67
2023/07/29 11:24:52;;;;;;;7.75;1.52;;;20.80;99.90;;;;;;5027500;28;20034;-66
2023/07/29 11:27:18;;;;;;;4.85;1.52;;;20.50;99.90;;;;;;5009214;28;20041;-70
2023/07/29 11:29:43;;;;;;;7.78;1.70;;;20.30;99.90;;;;;;5026361;28;20098;-66
2023/07/29 11:32:10;;;;;;;6.93;1.60;;;20.20;99.90;;;;;;5036145;28;20099;-66
2023/07/29 11:34:35;;;;;;;5.80;1.70;;;20.30;99.90;;;;;;5047932;28;20040;-69
2023/07/29 11:37:01;;;;;;;6.05;1.75;;;20.40;99.90;;;;;;5043768;28;20562;-66
2023/07/29 11:39:26;;;;;;;4.32;1.75;;;20.70;99.90;;;;;;5029046;28;20114;-68
2023/07/29 11:41:52;;;;;;;4.85;1.70;;;21.00;99.90;;;;;;5046281;28;20041;-68
2023/07/29 11:44:18;;;;;;;6.22;1.80;;;21.30;99.90;;;;;;5031157;28;20033;-66
2023/07/29 11:46:44;;;;;;;7.03;2.00;;;21.30;99.90;;;;;;5026977;28;20040;-69
2023/07/29 11:49:10;;;;;;;5.30;1.83;;;21.50;99.90;;;;;;5034311;28;20029;-65
2023/07/29 11:51:36;;;;;;;5.90;1.80;;;21.60;99.90;;;;;;5045655;28;20174;-66
2023/07/29 11:54:05;;;;;;;6.43;2.03;;;21.60;99.90;;;;;;5045839;28;20063;-67
2023/07/29 11:56:32;;;;;;;6.60;2.10;;;21.40;99.90;;;;;;5043280;28;20127;-66
2023/07/29 11:58:57;;;;;;;7.63;2.38;;;21.50;99.90;;;;;;5046288;28;20424;-67
2023/07/29 12:01:23;;;;;;;7.78;2.30;;;21.60;99.90;;;;;;5026040;28;20067;-69
2023/07/29 12:03:50;;;;;;;6.28;1.95;;;21.60;99.90;;;;;;5025960;28;20073;-68
2023/07/29 12:06:16;;;;;;;6.95;2.40;;;21.50;99.90;;;;;;5028506;28;20136;-66
2023/07/29 12:08:43;;;;;;;10.98;2.65;;;21.40;99.90;;;;;;5044899;28;20379;-70
2023/07/29 12:11:09;;;;;;;8.35;2.30;;;21.40;99.90;;;;;;5029253;28;20045;-70
2023/07/29 12:13:36;;;;;;;6.38;2.35;;;21.30;99.90;;;;;;5045878;28;20033;-66
2023/07/29 12:16:03;;;;;;;7.68;2.10;;;21.30;99.90;;;;;;5027247;28;20051;-63
2023/07/29 12:18:32;;;;;;;7.07;2.70;;;21.30;99.90;;;;;;5061429;28;20051;-65
2023/07/29 12:20:59;;;;;;;8.13;3.30;;;21.10;99.90;;;;;;5028550;28;20047;-69
2023/07/29 12:23:25;;;;;;;8.80;3.17;;;21.00;99.90;;;;;;5027142;28;20037;-68
2023/07/29 12:25:56;;;;;;;9.60;3.40;;;20.70;99.90;;;;;;5026191;28;20037;-67
2023/07/29 12:28:22;;;;;;;13.10;4.07;;;20.60;99.90;;;;;;5044580;28;20096;-66
2023/07/29 12:30:53;;;;;;;9.70;3.85;;;20.60;99.90;;;;;;5042768;28;20048;-64
2023/07/29 12:33:32;;;;;;;10.18;3.95;;;20.60;99.90;;;;;;5044230;28;20041;-70
2023/07/29 12:35:58;;;;;;;9.90;3.42;;;20.90;99.90;;;;;;5043610;28;20040;-68
2023/07/29 12:38:28;;;;;;;9.93;3.90;;;21.00;99.90;;;;;;5042409;28;20032;-71